Pagrindinis puslapis
METAR-TAF:

METAR-TAF

Oro uostai :

Kuveitas, Kuveitas

platuma: 29-13N, ilguma: 047-59E, Aukštis: 55 m

Dabartinis oras

Ataskaita buvo paskelbta 11 minutes, ne 23:00 UTC
Vėjas 4 kt iš Vakarų/Pietvakarių
Temperatūra 25°C
Drėgmė 47%
Slėgis 1004 hPa
Matomumas: 5000 m
Giedras dangus
(silpnas) migla

METAR: OKBK 202300Z 24004KT 5000 -HZ SKC 25/13 Q1004 NOSIG

Laikas: 02:11 (23:11 UTC)

Prognozė

Ataskaita buvo paskelbta 6 valandos ir 26 minutes, ne 16:45 UTC
Prognozė galioja nuo 20 metu 18 UTC su 21 metu 24 UTC
Vėjas 10 kt iš Pietų/Pietryčių
Matomumas: 7000 m
Giedras dangus
Tapsmas
nuo 20 metu 18 UTC su 20 metu 20 UTC
Vėjas 10 kt iš Šiaurės/Šiaurės Vakarų

TAF: OKBK 201645Z 2018/2124 16010KT 7000 SKC BECMG 2018/2020 34010KT

Orai ataskaitas ir orų prognozės (METAR, TAF).

turimą stotys yra geltonos ir raudonos taškus žemėlapyje.

Perkelti pele per norėdami pamatyti stoties vardą.

Tada spustelėkite, norėdami matyti oro stebėjimo ir prognozės.

Norėdami pakeisti žemėlapį: spustelėkite ant žalios mygtukų su juodo kryžiaus žemyn,; žalią mygtuką su brūkšneliu, jei norite nutolinti; arba žalių rodyklių gretimoms žemėlapius.


METAR-TAF: